01:31 Laufen Moetz - Haiming - Silzer Felder - Staudach gross - Moetz PLUS
Ort Moetz Datum 26.05.2016 15:57:19
Kategorie Strasse
Distanz 21,10 Kilometer Steigung 54,0 Meter Gefälle -56,0 Meter
Gesamt Zeit 01:30:38 Aktiv 01:28:23 Pause 00:02:15
Durchs. Tempo 00:04:17 min/km Tempo max. 00:03:44 min/km Tempo min. 00:05:52 min/km
Kalorien 0 Durchs. HF 146 BPM HF max. 160 BPM
Wetter 26 °C PartClouds Min/Max: 25,2 °C/26,7 °C; Druck: 1012,6 mbar; Rel. Feuchte: 38,9%; Taupunkt: 10,4 °C; Windgeschwindigkeit: 9,3 km/h; Niederschlag: 0,0mm
Ausrüstung New Balance - Zante v2 - blau
Notiz Moetz - Haiming - Silzer Felder - Staudach gross - Moetz PLUS ... warm, super Wetter, windig, locker bis flott ... garmin connect
Splits
Distanz (km) Gesamt Zeit Split Zeit Split Tempo Split Tempo Höhenprofil (m)
1,00 00:04:33 00:04:33 00:04:33 13,2 -1,25
2,00 00:08:52 00:04:19 00:04:19 13,9 2,62
3,00 00:13:10 00:04:17 00:04:18 14,0 6,48
4,00 00:17:15 00:04:05 00:04:05 14,7 -0,23
5,00 00:21:26 00:04:10 00:04:11 14,3 -1,58
6,00 00:25:39 00:04:13 00:04:13 14,2 3,66
7,00 00:29:55 00:04:15 00:04:16 14,1 -0,37
8,00 00:34:06 00:04:10 00:04:10 14,4 1,54
9,00 00:38:19 00:04:13 00:04:14 14,2 0,07
10,00 00:42:49 00:04:30 00:04:30 13,3 3,79
11,00 00:47:02 00:04:12 00:04:12 14,3 -1,99
12,00 00:51:18 00:04:15 00:04:16 14,1 0,58
13,00 00:55:34 00:04:15 00:04:16 14,1 -9,91
14,00 00:59:51 00:04:17 00:04:17 14,0 -3,45
15,00 01:04:08 00:04:16 00:04:17 14,0 -3,69
16,00 01:08:22 00:04:14 00:04:15 14,1 -0,36
17,00 01:12:39 00:04:16 00:04:16 14,0 -4,95
18,00 01:17:03 00:04:24 00:04:25 13,6 -0,55
19,00 01:21:16 00:04:13 00:04:13 14,2 5,26
20,00 01:25:32 00:04:15 00:04:16 14,1 -4,12
21,00 01:29:51 00:04:18 00:04:18 13,9 8,75
21,18 01:30:38 00:00:46 00:04:28 13,4 4,27